createdAt,value
2019-01-29T00:01:18.946Z,98835.34
2019-01-29T00:03:26.408Z,98829.56
2019-01-29T00:05:33.854Z,98835.27
2019-01-29T00:07:41.473Z,98841.38
2019-01-29T00:09:48.787Z,98837.02
2019-01-29T00:11:56.290Z,98848.38
2019-01-29T00:14:03.559Z,98849.54
2019-01-29T00:16:11.244Z,98842.34
2019-01-29T00:18:18.598Z,98831.63
2019-01-29T00:20:26.106Z,98839.80
2019-01-29T00:22:33.731Z,98844.53
2019-01-29T00:24:41.208Z,98841.60
2019-01-29T00:26:48.261Z,98842.06
2019-01-29T00:28:55.442Z,98848.55
2019-01-29T00:31:02.563Z,98851.61
2019-01-29T00:33:09.963Z,98850.69
2019-01-29T00:35:17.217Z,98855.42
2019-01-29T00:37:24.260Z,98856.80
2019-01-29T00:39:31.316Z,98857.17
2019-01-29T00:41:38.428Z,98860.56
2019-01-29T00:43:45.505Z,98861.06
2019-01-29T00:45:52.657Z,98858.09
2019-01-29T00:47:59.789Z,98858.19
2019-01-29T00:50:08.003Z,98863.38
2019-01-29T00:52:15.594Z,98859.90
2019-01-29T00:54:23.212Z,98865.19
2019-01-29T00:56:30.563Z,98861.30
2019-01-29T00:58:37.965Z,98865.59
2019-01-29T01:00:45.785Z,98862.49
2019-01-29T01:02:53.140Z,98859.48
2019-01-29T01:05:00.340Z,98859.48
2019-01-29T01:07:07.341Z,98857.73
2019-01-29T01:09:14.397Z,98859.81
2019-01-29T01:11:21.443Z,98858.98
2019-01-29T01:13:28.531Z,98848.59
2019-01-29T01:15:35.926Z,98858.19
2019-01-29T01:17:43.442Z,98858.31
2019-01-29T01:19:50.929Z,98862.59
2019-01-29T01:21:58.410Z,98856.52
2019-01-29T01:24:05.808Z,98856.61
2019-01-29T01:26:13.108Z,98860.13
2019-01-29T01:28:20.437Z,98847.20
2019-01-29T01:30:27.578Z,98851.27
2019-01-29T01:32:34.654Z,98842.23
2019-01-29T01:34:41.705Z,98847.38
2019-01-29T01:36:48.743Z,98848.38
2019-01-29T01:38:55.808Z,98855.50
2019-01-29T01:41:02.847Z,98867.77
2019-01-29T01:43:10.321Z,98853.13
2019-01-29T01:45:17.360Z,98857.40
2019-01-29T01:47:24.485Z,98854.14
2019-01-29T01:49:32.089Z,98846.07
2019-01-29T01:51:39.105Z,98852.67
2019-01-29T01:53:46.164Z,98855.08
2019-01-29T01:55:54.150Z,98855.41
2019-01-29T01:58:01.239Z,98849.05
2019-01-29T02:00:11.402Z,98849.93
2019-01-29T02:02:18.475Z,98851.35
2019-01-29T02:04:25.505Z,98860.88
2019-01-29T02:06:32.587Z,98861.58
2019-01-29T02:08:39.676Z,98868.05
2019-01-29T02:10:46.746Z,98872.73
2019-01-29T02:12:53.790Z,98871.50
2019-01-29T02:15:00.863Z,98874.76
2019-01-29T02:17:07.998Z,98882.17
2019-01-29T02:19:15.108Z,98881.37
2019-01-29T02:21:22.279Z,98880.08
2019-01-29T02:23:29.339Z,98886.27
2019-01-29T02:25:36.418Z,98886.56
2019-01-29T02:27:43.511Z,98886.67
2019-01-29T02:29:50.607Z,98888.05
2019-01-29T02:31:57.692Z,98891.36
2019-01-29T02:34:04.666Z,98891.91
2019-01-29T02:36:11.887Z,98893.66
2019-01-29T02:38:18.905Z,98901.52
2019-01-29T02:40:30.049Z,98900.84
2019-01-29T02:42:37.092Z,98902.52
2019-01-29T02:44:44.152Z,98904.98
2019-01-29T02:46:51.199Z,98911.89
2019-01-29T02:48:58.275Z,98907.27
2019-01-29T02:51:05.479Z,98903.39
2019-01-29T02:53:18.036Z,98910.45
2019-01-29T02:55:21.232Z,98906.64
2019-01-29T02:57:28.285Z,98914.41
2019-01-29T02:59:35.328Z,98916.59
2019-01-29T03:01:42.364Z,98913.20
2019-01-29T03:03:49.294Z,98915.70
2019-01-29T03:05:56.291Z,98918.98
2019-01-29T03:08:03.331Z,98926.26
2019-01-29T03:10:12.770Z,98927.14
2019-01-29T03:12:19.801Z,98930.15
2019-01-29T03:14:26.801Z,98933.22
2019-01-29T03:16:33.825Z,98929.92
2019-01-29T03:18:40.871Z,98922.77
2019-01-29T03:20:47.900Z,98929.25
2019-01-29T03:22:54.942Z,98935.02
2019-01-29T03:25:01.953Z,98945.19
2019-01-29T03:27:08.991Z,98941.68
2019-01-29T03:29:16.040Z,98942.14
2019-01-29T03:31:23.042Z,98949.03
2019-01-29T03:33:30.078Z,98947.46
2019-01-29T03:35:37.166Z,98940.52
2019-01-29T03:37:44.153Z,98940.59
2019-01-29T03:39:51.190Z,98941.59
2019-01-29T03:41:58.221Z,98948.08
2019-01-29T03:44:05.566Z,98943.84
2019-01-29T03:46:12.546Z,98945.98
2019-01-29T03:48:19.888Z,98941.26
2019-01-29T03:50:44.601Z,98945.83
2019-01-29T03:52:51.631Z,98946.37
2019-01-29T03:54:58.654Z,98945.98
2019-01-29T03:57:05.729Z,98949.76
2019-01-29T03:59:12.805Z,98945.03
2019-01-29T04:01:19.772Z,98948.96
2019-01-29T04:03:26.809Z,98951.17
2019-01-29T04:05:33.875Z,98958.00
2019-01-29T04:07:40.889Z,98957.20
2019-01-29T04:09:47.860Z,98958.99
2019-01-29T04:11:54.909Z,98960.64
2019-01-29T04:14:02.014Z,98960.34
2019-01-29T04:16:09.028Z,98962.14
2019-01-29T04:18:16.057Z,98970.78
2019-01-29T04:20:23.138Z,98960.69
2019-01-29T04:22:30.131Z,98971.44
2019-01-29T04:24:37.182Z,98974.71
2019-01-29T04:26:44.213Z,98972.31
2019-01-29T04:28:51.273Z,98973.80
2019-01-29T04:30:58.323Z,98973.00
2019-01-29T04:33:05.331Z,98976.65
2019-01-29T04:35:12.376Z,98974.30
2019-01-29T04:37:19.408Z,98969.56
2019-01-29T04:39:26.430Z,98973.10
2019-01-29T04:41:33.498Z,98986.25
2019-01-29T04:43:40.499Z,98988.55
2019-01-29T04:45:47.578Z,98981.98
2019-01-29T04:47:54.647Z,98986.73
2019-01-29T04:50:01.726Z,98989.03
2019-01-29T04:52:08.780Z,98984.57
2019-01-29T04:54:15.858Z,98997.61
2019-01-29T04:56:22.940Z,99005.80
2019-01-29T04:58:30.004Z,98996.54
2019-01-29T05:00:37.136Z,98992.66
2019-01-29T05:02:44.154Z,98996.92
2019-01-29T05:04:51.217Z,99000.66
2019-01-29T05:06:58.349Z,99001.95
2019-01-29T05:09:08.807Z,99008.21
2019-01-29T05:11:15.854Z,98996.05
2019-01-29T05:13:22.928Z,99005.05
2019-01-29T05:15:30.002Z,99009.70
2019-01-29T05:17:37.064Z,99006.61
2019-01-29T05:19:44.173Z,99000.02
2019-01-29T05:21:51.196Z,99000.52
2019-01-29T05:24:06.619Z,99000.94
2019-01-29T05:26:07.080Z,98997.35
2019-01-29T05:28:14.168Z,99002.04
2019-01-29T05:30:26.371Z,99004.67
2019-01-29T05:32:34.319Z,98999.45
2019-01-29T05:34:41.390Z,99000.67
2019-01-29T05:36:48.320Z,99006.73
2019-01-29T05:38:55.330Z,99012.41
2019-01-29T05:41:02.384Z,99001.43
2019-01-29T05:43:09.444Z,99011.80
2019-01-29T05:45:18.693Z,99005.73
2019-01-29T05:47:25.731Z,99011.34
2019-01-29T05:49:33.103Z,99011.34
2019-01-29T05:51:40.664Z,99009.20
2019-01-29T05:53:47.814Z,99014.81
2019-01-29T05:55:55.072Z,99010.12
2019-01-29T05:58:02.466Z,99024.66
2019-01-29T06:00:22.904Z,99030.64
2019-01-29T06:02:29.923Z,99030.64
2019-01-29T06:04:36.997Z,99035.09
2019-01-29T06:06:44.055Z,99029.91
2019-01-29T06:08:51.076Z,99032.39
2019-01-29T06:10:58.151Z,99038.19
2019-01-29T06:13:05.329Z,99035.02
2019-01-29T06:15:15.539Z,99038.03
2019-01-29T06:17:27.483Z,99039.48
2019-01-29T06:19:31.351Z,99035.89
2019-01-29T06:21:38.371Z,99035.83
2019-01-29T06:23:45.460Z,99037.58
2019-01-29T06:25:52.517Z,99040.36
2019-01-29T06:27:59.498Z,99039.52
2019-01-29T06:30:08.587Z,99049.20
2019-01-29T06:32:15.640Z,99056.30
2019-01-29T06:34:22.843Z,99057.98
2019-01-29T06:36:29.989Z,99065.27
2019-01-29T06:38:37.103Z,99071.29
2019-01-29T06:40:44.492Z,99067.25
2019-01-29T06:42:51.603Z,99073.38
2019-01-29T06:44:58.983Z,99074.14
2019-01-29T06:47:06.249Z,99077.04
2019-01-29T06:49:13.373Z,99077.58
2019-01-29T06:51:20.457Z,99082.31
2019-01-29T06:53:27.692Z,99081.02
2019-01-29T06:55:35.025Z,99088.75
2019-01-29T06:57:42.487Z,99093.45
2019-01-29T06:59:49.893Z,99100.84
2019-01-29T07:01:57.024Z,99101.12
2019-01-29T07:04:03.996Z,99098.48
2019-01-29T07:06:11.050Z,99102.37
2019-01-29T07:08:18.095Z,99104.97
2019-01-29T07:10:25.333Z,99102.30
2019-01-29T07:12:32.747Z,99105.27
2019-01-29T07:14:39.975Z,99106.56
2019-01-29T07:16:59.965Z,99102.18
2019-01-29T07:19:15.433Z,99108.55
2019-01-29T07:21:22.493Z,99115.95
2019-01-29T07:23:29.571Z,99110.88
2019-01-29T07:25:36.528Z,99112.06
2019-01-29T07:27:43.545Z,99119.73
2019-01-29T07:29:50.578Z,99132.20
2019-01-29T07:31:57.585Z,99132.20
2019-01-29T07:34:04.592Z,99132.97
2019-01-29T07:36:11.629Z,99137.47
2019-01-29T07:38:18.651Z,99143.00
2019-01-29T07:40:25.752Z,99137.70
2019-01-29T07:42:33.347Z,99139.41
2019-01-29T07:44:40.483Z,99140.25
2019-01-29T07:46:47.589Z,99140.70
2019-01-29T07:48:54.591Z,99144.10
2019-01-29T07:51:01.699Z,99143.69
2019-01-29T07:53:08.785Z,99154.29
2019-01-29T07:55:16.129Z,99154.55
2019-01-29T07:57:23.211Z,99158.45
2019-01-29T07:59:33.243Z,99156.23
2019-01-29T08:01:39.952Z,99160.55
2019-01-29T08:03:47.209Z,99167.45
2019-01-29T08:05:54.316Z,99164.24
2019-01-29T08:08:01.392Z,99165.95
2019-01-29T08:10:08.949Z,99168.55
2019-01-29T08:12:16.660Z,99175.42
2019-01-29T08:14:24.147Z,99180.96
2019-01-29T08:16:31.570Z,99183.02
2019-01-29T08:18:39.088Z,99189.89
2019-01-29T08:20:46.119Z,99190.31
2019-01-29T08:22:53.240Z,99191.15
2019-01-29T08:25:01.862Z,99194.20
2019-01-29T08:27:09.124Z,99198.48
2019-01-29T08:29:16.680Z,99209.28
2019-01-29T08:31:24.411Z,99207.19
2019-01-29T08:33:31.782Z,99211.42
2019-01-29T08:35:39.235Z,99208.28
2019-01-29T08:37:46.820Z,99207.38
2019-01-29T08:39:54.257Z,99216.42
2019-01-29T08:42:01.513Z,99218.06
2019-01-29T08:44:09.243Z,99221.95
2019-01-29T08:46:16.742Z,99228.45
2019-01-29T08:48:24.446Z,99228.75
2019-01-29T08:50:31.748Z,99224.36
2019-01-29T08:52:39.226Z,99226.95
2019-01-29T08:54:46.620Z,99229.44
2019-01-29T08:56:53.765Z,99230.80
2019-01-29T08:59:00.968Z,99238.44
2019-01-29T09:01:08.842Z,99232.29
2019-01-29T09:03:16.127Z,99236.94
2019-01-29T09:05:23.346Z,99235.53
2019-01-29T09:07:30.727Z,99244.12
2019-01-29T09:09:38.112Z,99239.22
2019-01-29T09:11:45.552Z,99248.53
2019-01-29T09:13:52.988Z,99253.35
2019-01-29T09:16:00.397Z,99251.09
2019-01-29T09:18:07.501Z,99247.20
2019-01-29T09:20:15.913Z,99240.31
2019-01-29T09:22:23.179Z,99247.88
2019-01-29T09:24:30.269Z,99254.37
2019-01-29T09:26:37.745Z,99256.92
2019-01-29T09:28:45.217Z,99255.58
2019-01-29T09:30:52.678Z,99253.28
2019-01-29T09:33:00.175Z,99255.67
2019-01-29T09:35:07.637Z,99258.44
2019-01-29T09:37:15.102Z,99255.63
2019-01-29T09:39:22.523Z,99261.00
2019-01-29T09:41:29.964Z,99263.09
2019-01-29T09:43:37.279Z,99263.89
2019-01-29T09:45:44.589Z,99269.00
2019-01-29T09:47:52.204Z,99262.81
2019-01-29T09:49:59.552Z,99263.21
2019-01-29T09:52:06.983Z,99259.21
2019-01-29T09:54:14.697Z,99258.58
2019-01-29T09:56:22.323Z,99254.94
2019-01-29T09:58:29.759Z,99262.42
2019-01-29T10:00:39.735Z,99261.30
2019-01-29T10:02:47.672Z,99261.01
2019-01-29T10:04:55.244Z,99245.86
2019-01-29T10:07:02.382Z,99261.63
2019-01-29T10:09:10.249Z,99256.05
2019-01-29T10:11:17.384Z,99251.17
2019-01-29T10:13:24.516Z,99250.20
2019-01-29T10:15:33.811Z,99252.30
2019-01-29T10:17:40.945Z,99248.27
2019-01-29T10:19:47.983Z,99247.94
2019-01-29T10:21:55.308Z,99252.03
2019-01-29T10:24:02.975Z,99257.30
2019-01-29T10:26:10.442Z,99252.92
2019-01-29T10:28:17.980Z,99260.97
2019-01-29T10:30:25.931Z,99249.20
2019-01-29T10:32:33.271Z,99257.67
2019-01-29T10:34:40.691Z,99250.50
2019-01-29T10:36:48.087Z,99250.55
2019-01-29T10:38:55.240Z,99257.70
2019-01-29T10:41:02.466Z,99255.09
2019-01-29T10:43:09.922Z,99266.81
2019-01-29T10:45:18.927Z,99265.70
2019-01-29T10:47:26.482Z,99262.45
2019-01-29T10:49:33.720Z,99267.33
2019-01-29T10:51:40.858Z,99268.67
2019-01-29T10:53:47.945Z,99267.33
2019-01-29T10:55:55.554Z,99260.64
2019-01-29T10:58:03.143Z,99267.66
2019-01-29T11:00:15.812Z,99267.14
2019-01-29T11:02:23.496Z,99268.86
2019-01-29T11:04:31.092Z,99264.49
2019-01-29T11:06:38.504Z,99271.52
2019-01-29T11:08:46.573Z,99276.20
2019-01-29T11:10:54.339Z,99272.81
2019-01-29T11:13:01.832Z,99272.30
2019-01-29T11:15:13.679Z,99270.95
2019-01-29T11:17:20.910Z,99277.37
2019-01-29T11:19:28.087Z,99282.72
2019-01-29T11:21:35.322Z,99280.49
2019-01-29T11:23:42.434Z,99285.37
2019-01-29T11:25:55.665Z,99285.32
2019-01-29T11:27:58.857Z,99280.11
2019-01-29T11:30:06.843Z,99285.32
2019-01-29T11:32:14.123Z,99283.05
2019-01-29T11:34:21.354Z,99289.50
2019-01-29T11:36:28.815Z,99300.30
2019-01-29T11:38:35.949Z,99300.25
2019-01-29T11:40:43.513Z,99302.47
2019-01-29T11:42:51.137Z,99300.71
2019-01-29T11:44:58.530Z,99302.98
2019-01-29T11:47:06.592Z,99303.41
2019-01-29T11:49:14.332Z,99306.30
2019-01-29T11:51:21.524Z,99305.08
2019-01-29T11:53:28.960Z,99302.67
2019-01-29T11:55:36.194Z,99303.13
2019-01-29T11:57:43.525Z,99299.84
2019-01-29T11:59:51.013Z,99306.63
2019-01-29T12:01:58.442Z,99311.42
2019-01-29T12:04:06.380Z,99309.56
2019-01-29T12:06:13.668Z,99316.41
2019-01-29T12:08:21.151Z,99319.70
2019-01-29T12:10:28.373Z,99319.29
2019-01-29T12:12:35.826Z,99310.69
2019-01-29T12:14:43.349Z,99321.56
2019-01-29T12:16:50.822Z,99317.84
2019-01-29T12:18:58.379Z,99329.14
2019-01-29T12:21:05.784Z,99331.37
2019-01-29T12:23:12.851Z,99335.12
2019-01-29T12:25:19.961Z,99332.39
2019-01-29T12:27:27.128Z,99339.79
2019-01-29T12:29:34.303Z,99343.70
2019-01-29T12:31:41.610Z,99344.16
2019-01-29T12:33:48.810Z,99350.62
2019-01-29T12:35:55.921Z,99353.61
2019-01-29T12:38:05.566Z,99364.61
2019-01-29T12:40:12.656Z,99367.13
2019-01-29T12:42:19.908Z,99365.32
2019-01-29T12:44:27.129Z,99363.64
2019-01-29T12:46:34.386Z,99360.24
2019-01-29T12:48:41.502Z,99371.96
2019-01-29T12:50:58.410Z,99371.50
2019-01-29T12:53:27.168Z,99371.45
2019-01-29T12:55:34.263Z,99368.89
2019-01-29T12:57:41.517Z,99365.27
2019-01-29T12:59:48.648Z,99370.53
2019-01-29T13:01:55.774Z,99380.52
2019-01-29T13:04:03.833Z,99373.09
2019-01-29T13:06:11.503Z,99388.38
2019-01-29T13:08:19.777Z,99384.98
2019-01-29T13:10:28.642Z,99381.99
2019-01-29T13:12:36.540Z,99382.42
2019-01-29T13:14:43.833Z,99380.16
2019-01-29T13:16:51.053Z,99388.55
2019-01-29T13:18:58.386Z,99388.50
2019-01-29T13:21:05.567Z,99393.30
2019-01-29T13:23:12.696Z,99396.41
2019-01-29T13:25:19.924Z,99403.14
2019-01-29T13:27:27.083Z,99406.45
2019-01-29T13:29:34.414Z,99409.14
2019-01-29T13:31:41.574Z,99409.14
2019-01-29T13:33:48.704Z,99406.48
2019-01-29T13:35:55.913Z,99414.30
2019-01-29T13:38:03.270Z,99412.16
2019-01-29T13:40:11.296Z,99413.97
2019-01-29T13:42:18.508Z,99418.25
2019-01-29T13:44:25.716Z,99421.78
2019-01-29T13:46:32.863Z,99416.11
2019-01-29T13:48:40.165Z,99420.86
2019-01-29T13:50:51.902Z,99422.12
2019-01-29T13:52:59.030Z,99417.80
2019-01-29T13:55:07.806Z,99413.67
2019-01-29T13:57:14.890Z,99421.95
2019-01-29T13:59:22.011Z,99427.25
2019-01-29T14:01:29.252Z,99433.71
2019-01-29T14:03:37.278Z,99433.41
2019-01-29T14:05:44.491Z,99434.42
2019-01-29T14:07:51.716Z,99433.84
2019-01-29T14:09:58.880Z,99438.16
2019-01-29T14:12:06.345Z,99445.63
2019-01-29T14:14:13.438Z,99439.05
2019-01-29T14:16:20.502Z,99443.91
2019-01-29T14:18:31.037Z,99451.00
2019-01-29T14:20:38.165Z,99450.76
2019-01-29T14:22:45.574Z,99452.56
2019-01-29T14:24:53.085Z,99453.82
2019-01-29T14:27:00.586Z,99450.08
2019-01-29T14:29:08.156Z,99450.49
2019-01-29T14:31:15.224Z,99448.39
2019-01-29T14:33:22.335Z,99453.98
2019-01-29T14:35:29.508Z,99463.59
2019-01-29T14:38:30.172Z,99454.02
2019-01-29T14:40:37.284Z,99459.81
2019-01-29T14:42:46.375Z,99465.90
2019-01-29T14:44:56.114Z,99465.09
2019-01-29T14:47:03.277Z,99462.50
2019-01-29T14:49:10.519Z,99479.03
2019-01-29T14:51:17.706Z,99478.19
2019-01-29T14:53:24.906Z,99480.03
2019-01-29T14:55:32.021Z,99487.38
2019-01-29T14:57:41.018Z,99483.52
2019-01-29T14:59:48.083Z,99485.73
2019-01-29T15:01:55.244Z,99493.16
2019-01-29T15:04:02.323Z,99499.24
2019-01-29T15:06:09.631Z,99496.64
2019-01-29T15:08:16.854Z,99504.56
2019-01-29T15:10:23.979Z,99500.36
2019-01-29T15:12:31.155Z,99495.73
2019-01-29T15:14:38.334Z,99507.52
2019-01-29T15:17:03.819Z,99509.23
2019-01-29T15:19:14.499Z,99509.77
2019-01-29T15:21:21.691Z,99512.86
2019-01-29T15:23:28.855Z,99520.75
2019-01-29T15:25:36.082Z,99517.69
2019-01-29T15:27:43.165Z,99526.06
2019-01-29T15:29:50.550Z,99526.94
2019-01-29T15:31:57.754Z,99535.66
2019-01-29T15:34:05.042Z,99530.95
2019-01-29T15:36:12.215Z,99534.70
2019-01-29T15:38:19.428Z,99536.81
2019-01-29T15:40:26.534Z,99535.16
2019-01-29T15:42:33.783Z,99538.26
2019-01-29T15:44:41.038Z,99549.05
2019-01-29T15:46:48.543Z,99547.75
2019-01-29T15:48:55.817Z,99555.16
2019-01-29T15:51:03.274Z,99558.22
2019-01-29T15:53:10.793Z,99562.12
2019-01-29T15:55:18.036Z,99563.50
2019-01-29T15:57:25.338Z,99574.85
2019-01-29T15:59:32.640Z,99575.34
2019-01-29T16:01:39.980Z,99578.44
2019-01-29T16:03:47.418Z,99581.95
2019-01-29T16:05:54.788Z,99579.36
2019-01-29T16:08:02.018Z,99589.90
2019-01-29T16:10:11.871Z,99583.82
2019-01-29T16:12:19.148Z,99596.82
2019-01-29T16:14:26.271Z,99593.48
2019-01-29T16:16:33.410Z,99602.80
2019-01-29T16:18:40.537Z,99601.66
2019-01-29T16:20:48.037Z,99606.93
2019-01-29T16:22:55.182Z,99612.55
2019-01-29T16:25:02.343Z,99611.84
2019-01-29T16:27:09.455Z,99613.63
2019-01-29T16:29:16.760Z,99611.56
2019-01-29T16:31:23.793Z,99623.74
2019-01-29T16:33:31.056Z,99621.60
2019-01-29T16:35:38.322Z,99622.90
2019-01-29T16:37:45.387Z,99620.43
2019-01-29T16:39:52.470Z,99624.95
2019-01-29T16:41:59.664Z,99622.06
2019-01-29T16:44:07.539Z,99626.41
2019-01-29T16:46:15.052Z,99629.50
2019-01-29T16:48:22.370Z,99628.63
2019-01-29T16:50:29.588Z,99636.45
2019-01-29T16:52:36.706Z,99630.38
2019-01-29T16:54:43.997Z,99642.48
2019-01-29T16:56:51.256Z,99644.69
2019-01-29T16:58:58.344Z,99642.23
2019-01-29T17:01:06.023Z,99647.45
2019-01-29T17:03:13.177Z,99647.78
2019-01-29T17:05:20.257Z,99651.22
2019-01-29T17:07:27.493Z,99657.66
2019-01-29T17:09:35.068Z,99659.05
2019-01-29T17:11:42.219Z,99665.96
2019-01-29T17:13:49.742Z,99665.54
2019-01-29T17:15:57.254Z,99659.05
2019-01-29T17:18:04.588Z,99666.84
2019-01-29T17:20:17.065Z,99672.45
2019-01-29T17:22:24.234Z,99668.63
2019-01-29T17:24:31.566Z,99671.22
2019-01-29T17:26:38.638Z,99676.81
2019-01-29T17:28:45.879Z,99675.63
2019-01-29T17:30:53.049Z,99679.59
2019-01-29T17:33:00.458Z,99682.13
2019-01-29T17:35:07.812Z,99684.15
2019-01-29T17:37:15.139Z,99689.11
2019-01-29T17:39:22.529Z,99681.25
2019-01-29T17:41:29.642Z,99691.70
2019-01-29T17:43:37.029Z,99694.33
2019-01-29T17:45:46.996Z,99698.23
2019-01-29T17:47:54.263Z,99697.38
2019-01-29T17:50:01.557Z,99701.77
2019-01-29T17:52:08.729Z,99708.19
2019-01-29T17:54:16.001Z,99700.12
2019-01-29T17:56:23.332Z,99704.42
2019-01-29T17:58:30.631Z,99701.46
2019-01-29T18:00:39.212Z,99711.73
2019-01-29T18:02:46.857Z,99714.11
2019-01-29T18:04:54.046Z,99716.68
2019-01-29T18:07:01.211Z,99713.27
2019-01-29T18:09:10.840Z,99715.83
2019-01-29T18:11:18.015Z,99712.36
2019-01-29T18:13:25.177Z,99712.30
2019-01-29T18:15:32.645Z,99714.08
2019-01-29T18:17:40.045Z,99711.39
2019-01-29T18:19:47.451Z,99718.31
2019-01-29T18:21:57.149Z,99722.33
2019-01-29T18:24:04.387Z,99717.98
2019-01-29T18:26:11.587Z,99713.15
2019-01-29T18:28:18.740Z,99716.68
2019-01-29T18:30:29.775Z,99721.99
2019-01-29T18:32:36.901Z,99724.13
2019-01-29T18:34:44.365Z,99724.56
2019-01-29T18:36:51.606Z,99723.74
2019-01-29T18:38:59.095Z,99728.63
2019-01-29T18:41:06.495Z,99734.27
2019-01-29T18:43:13.869Z,99730.23
2019-01-29T18:45:21.093Z,99734.30
2019-01-29T18:47:28.351Z,99739.83
2019-01-29T18:49:35.911Z,99727.69
2019-01-29T18:51:43.184Z,99734.52
2019-01-29T18:53:50.636Z,99734.27
2019-01-29T18:55:58.075Z,99737.14
2019-01-29T18:58:11.664Z,99744.20
2019-01-29T19:00:21.137Z,99739.52
2019-01-29T19:02:28.420Z,99741.27
2019-01-29T19:04:35.850Z,99742.59
2019-01-29T19:06:43.414Z,99745.53
2019-01-29T19:08:50.784Z,99745.19
2019-01-29T19:10:58.020Z,99746.58
2019-01-29T19:13:05.516Z,99746.72
2019-01-29T19:15:22.074Z,99744.55
2019-01-29T19:17:29.286Z,99745.39
2019-01-29T19:19:36.633Z,99750.00
2019-01-29T19:21:44.128Z,99748.78
2019-01-29T19:23:51.442Z,99758.23
2019-01-29T19:25:59.224Z,99755.64
2019-01-29T19:28:06.606Z,99756.83
2019-01-29T19:30:24.187Z,99761.23
2019-01-29T19:32:31.750Z,99753.41
2019-01-29T19:34:39.154Z,99758.17
2019-01-29T19:36:46.416Z,99745.28
2019-01-29T19:38:53.650Z,99739.58
2019-01-29T19:41:00.960Z,99740.48
2019-01-29T19:43:08.212Z,99748.44
2019-01-29T19:45:19.942Z,99751.75
2019-01-29T19:47:27.553Z,99756.25
2019-01-29T19:49:34.639Z,99758.00
2019-01-29T19:51:42.885Z,99761.31
2019-01-29T19:53:50.161Z,99761.81
2019-01-29T19:55:57.287Z,99763.25
2019-01-29T19:58:09.107Z,99762.88
2019-01-29T20:00:21.279Z,99766.89
2019-01-29T20:02:28.494Z,99764.89
2019-01-29T20:04:35.652Z,99774.11
2019-01-29T20:06:42.797Z,99773.63
2019-01-29T20:08:50.002Z,99770.91
2019-01-29T20:10:57.106Z,99774.23
2019-01-29T20:13:04.191Z,99773.61
2019-01-29T20:15:13.695Z,99773.05
2019-01-29T20:17:21.084Z,99773.86
2019-01-29T20:19:28.536Z,99774.06
2019-01-29T20:21:35.848Z,99770.79
2019-01-29T20:23:42.992Z,99774.30
2019-01-29T20:25:50.074Z,99772.28
2019-01-29T20:28:15.114Z,99780.59
2019-01-29T20:30:26.027Z,99788.95
2019-01-29T20:32:33.269Z,99778.09
2019-01-29T20:34:40.593Z,99788.34
2019-01-29T20:36:47.855Z,99787.63
2019-01-29T20:38:54.862Z,99790.64
2019-01-29T20:41:02.017Z,99786.67
2019-01-29T20:43:16.886Z,99782.33
2019-01-29T20:45:30.118Z,99781.37
2019-01-29T20:47:40.917Z,99791.30
2019-01-29T20:49:48.891Z,99793.16
2019-01-29T20:55:03.667Z,99797.10
2019-01-29T21:00:24.734Z,99798.88
2019-01-29T21:02:50.282Z,99797.70
2019-01-29T21:05:28.493Z,99789.42
2019-01-29T21:07:47.357Z,99792.05
2019-01-29T21:10:07.911Z,99794.59
2019-01-29T21:12:29.113Z,99795.98
2019-01-29T21:14:48.097Z,99800.63
2019-01-29T21:17:27.019Z,99791.06
2019-01-29T21:19:44.469Z,99795.45
2019-01-29T21:22:00.852Z,99794.83
2019-01-29T21:24:08.056Z,99793.79
2019-01-29T21:26:15.306Z,99787.33
2019-01-29T21:28:22.583Z,99791.33
2019-01-29T21:30:32.865Z,99788.25
2019-01-29T21:32:39.973Z,99783.30
2019-01-29T21:34:47.165Z,99795.19
2019-01-29T21:36:54.408Z,99791.30
2019-01-29T21:39:01.436Z,99787.86
2019-01-29T21:41:08.676Z,99788.68
2019-01-29T21:43:15.831Z,99792.70
2019-01-29T21:45:23.477Z,99789.50
2019-01-29T21:47:30.730Z,99785.37
2019-01-29T21:49:37.940Z,99798.98
2019-01-29T21:51:45.133Z,99800.48
2019-01-29T21:53:52.352Z,99795.64
2019-01-29T21:55:59.524Z,99795.64
2019-01-29T21:58:07.406Z,99799.09
2019-01-29T22:00:31.065Z,99799.91
2019-01-29T22:02:38.133Z,99804.83
2019-01-29T22:04:45.173Z,99800.28
2019-01-29T22:06:52.263Z,99803.78
2019-01-29T22:08:59.522Z,99800.73
2019-01-29T22:11:06.652Z,99805.45
2019-01-29T22:13:14.969Z,99803.76
2019-01-29T22:15:22.454Z,99812.31
2019-01-29T22:17:29.799Z,99809.94
2019-01-29T22:19:36.933Z,99812.77
2019-01-29T22:21:44.212Z,99814.23
2019-01-29T22:23:51.494Z,99802.63
2019-01-29T22:25:58.607Z,99809.12
2019-01-29T22:28:06.658Z,99813.31
2019-01-29T22:30:27.003Z,99812.26
2019-01-29T22:32:34.139Z,99821.41
2019-01-29T22:34:41.295Z,99820.21
2019-01-29T22:36:48.430Z,99824.10
2019-01-29T22:38:55.593Z,99826.42
2019-01-29T22:41:02.732Z,99823.93
2019-01-29T22:43:10.400Z,99828.91
2019-01-29T22:45:18.170Z,99822.70
2019-01-29T22:47:25.263Z,99833.30
2019-01-29T22:49:32.484Z,99821.64
2019-01-29T22:51:39.874Z,99830.14
2019-01-29T22:53:47.085Z,99823.55
2019-01-29T22:55:54.181Z,99828.72
2019-01-29T22:58:01.227Z,99828.02
2019-01-29T23:00:58.545Z,99817.45
2019-01-29T23:03:05.709Z,99824.16
2019-01-29T23:05:12.894Z,99816.45
2019-01-29T23:07:33.134Z,99821.08
2019-01-29T23:09:40.265Z,99824.95
2019-01-29T23:11:47.340Z,99825.30
2019-01-29T23:13:54.500Z,99823.58
2019-01-29T23:16:01.616Z,99818.84
2019-01-29T23:18:08.656Z,99825.25
2019-01-29T23:20:15.997Z,99824.83
2019-01-29T23:22:23.130Z,99818.39
2019-01-29T23:24:30.157Z,99817.99
2019-01-29T23:26:37.197Z,99816.27
2019-01-29T23:28:44.370Z,99822.39
2019-01-29T23:30:51.626Z,99818.58
2019-01-29T23:32:58.614Z,99819.45
2019-01-29T23:35:06.467Z,99822.47
2019-01-29T23:37:13.543Z,99821.13
2019-01-29T23:39:20.565Z,99823.91
2019-01-29T23:41:27.588Z,99824.92
2019-01-29T23:43:34.897Z,99828.43
2019-01-29T23:45:41.991Z,99826.88
2019-01-29T23:47:51.010Z,99820.95
2019-01-29T23:49:58.088Z,99824.45
2019-01-29T23:52:05.245Z,99817.99
2019-01-29T23:54:12.357Z,99818.17
2019-01-29T23:56:19.536Z,99818.33
2019-01-29T23:58:26.485Z,99820.58
